Time;durP1;ratioP1;P1;durP2;ratioP2;P2;SDS_P1;SDS_P2;PMS_P1;PMS_P2;Temp;Humidity;BMP_temperature;BMP_pressure;BME280_temperature;BME280_humidity;BME280_pressure;Samples;Min_cycle;Max_cycle;Signal;HPM_P1;HPM_P2
2023/09/01 00:00:41;;;;;;;31.40;21.80;;;11.90;99.90;;;;;;5052348;28;20044;-66
2023/09/01 00:03:07;;;;;;;26.45;19.55;;;11.90;99.90;;;;;;5050552;28;20414;-74
2023/09/01 00:05:34;;;;;;;26.20;18.98;;;11.90;99.90;;;;;;5054794;28;20025;-66
2023/09/01 00:07:59;;;;;;;25.40;19.17;;;11.80;99.90;;;;;;5058843;28;20372;-66
2023/09/01 00:10:25;;;;;;;21.55;18.13;;;11.80;99.90;;;;;;5056828;28;20175;-66
2023/09/01 00:12:51;;;;;;;22.08;17.90;;;11.80;99.90;;;;;;5051668;28;20032;-66
2023/09/01 00:15:17;;;;;;;23.50;18.00;;;11.80;99.90;;;;;;5057688;28;20103;-66
2023/09/01 00:17:43;;;;;;;25.77;19.48;;;11.70;99.90;;;;;;5057007;28;20040;-67
2023/09/01 00:20:10;;;;;;;25.38;17.55;;;11.70;99.90;;;;;;5056715;28;20032;-66
2023/09/01 00:22:35;;;;;;;23.85;18.38;;;11.60;99.90;;;;;;5055282;28;20483;-66
2023/09/01 00:25:01;;;;;;;33.28;24.05;;;11.60;99.90;;;;;;5059979;28;20120;-66
2023/09/01 00:27:26;;;;;;;31.92;21.85;;;11.50;99.90;;;;;;5045444;28;20033;-66
2023/09/01 00:29:52;;;;;;;35.78;25.25;;;11.50;99.90;;;;;;5056184;28;20049;-66
2023/09/01 00:32:18;;;;;;;30.90;20.98;;;11.50;99.90;;;;;;5055393;28;20112;-66
2023/09/01 00:34:43;;;;;;;28.02;20.58;;;11.40;99.90;;;;;;5056524;28;20048;-66
2023/09/01 00:37:09;;;;;;;28.42;20.15;;;11.40;99.90;;;;;;5055962;28;20063;-66
2023/09/01 00:39:34;;;;;;;27.58;19.70;;;11.40;99.90;;;;;;5056456;28;20478;-66
2023/09/01 00:42:00;;;;;;;29.92;20.27;;;11.40;99.90;;;;;;5055197;28;20744;-66
2023/09/01 00:44:26;;;;;;;28.38;20.80;;;11.40;99.90;;;;;;5055100;28;20036;-66
2023/09/01 00:46:51;;;;;;;25.67;19.48;;;11.30;99.90;;;;;;5074409;28;20131;-74
2023/09/01 00:49:18;;;;;;;30.30;19.60;;;11.30;99.90;;;;;;5060314;28;20082;-66
2023/09/01 00:51:46;;;;;;;25.20;18.40;;;11.30;99.90;;;;;;5055893;28;20340;-67
2023/09/01 00:54:13;;;;;;;31.20;20.98;;;11.30;99.90;;;;;;5053771;28;20068;-66
2023/09/01 00:56:39;;;;;;;27.38;18.17;;;11.20;99.90;;;;;;5059528;28;20025;-66
2023/09/01 00:59:05;;;;;;;27.48;20.05;;;11.20;99.90;;;;;;5056576;28;20513;-66
2023/09/01 01:01:31;;;;;;;23.10;18.02;;;11.20;99.90;;;;;;5056555;28;20079;-66
2023/09/01 01:03:57;;;;;;;29.60;19.38;;;11.20;99.90;;;;;;5056274;28;20068;-66
2023/09/01 01:06:49;;;;;;;31.17;18.73;;;11.20;99.90;;;;;;5055431;28;20049;-66
2023/09/01 01:14:40;;;;;;;31.00;22.30;;;11.10;99.90;;;;;;5071415;28;20441;-66
2023/09/01 01:17:08;;;;;;;25.55;19.73;;;11.10;99.90;;;;;;5066275;28;20032;-66
2023/09/01 01:20:13;;;;;;;26.05;19.27;;;11.00;99.90;;;;;;5070291;28;20024;-72
2023/09/01 01:22:43;;;;;;;27.65;20.52;;;11.00;99.90;;;;;;5069025;28;20120;-65
2023/09/01 01:25:11;;;;;;;30.48;20.35;;;11.00;99.90;;;;;;5071453;28;20047;-65
2023/09/01 01:27:38;;;;;;;27.92;19.60;;;11.00;99.90;;;;;;5070507;28;20029;-65
2023/09/01 01:30:05;;;;;;;34.55;22.73;;;10.90;99.90;;;;;;5069982;28;20382;-66
2023/09/01 01:32:32;;;;;;;31.20;20.05;;;11.00;99.90;;;;;;5058440;28;20032;-65
2023/09/01 01:35:16;;;;;;;26.45;19.58;;;11.00;99.90;;;;;;5069452;28;20116;-71
2023/09/01 01:37:56;;;;;;;33.67;21.35;;;10.90;99.90;;;;;;5068382;28;20039;-66
2023/09/01 01:40:24;;;;;;;34.78;23.55;;;10.90;99.90;;;;;;5070913;28;20108;-66
2023/09/01 01:42:51;;;;;;;32.65;22.20;;;10.90;99.90;;;;;;5068733;28;20112;-65
2023/09/01 01:45:20;;;;;;;35.88;23.38;;;10.90;99.90;;;;;;5069768;28;20021;-75
2023/09/01 01:47:48;;;;;;;30.73;20.90;;;10.90;99.90;;;;;;5069893;28;20036;-65
2023/09/01 01:50:13;;;;;;;29.60;19.02;;;10.90;99.90;;;;;;5068819;28;20135;-66
2023/09/01 01:52:39;;;;;;;30.05;19.52;;;10.80;99.90;;;;;;5067810;28;20116;-65
2023/09/01 01:55:07;;;;;;;42.65;26.50;;;10.70;99.90;;;;;;5070232;28;20501;-65
2023/09/01 01:57:33;;;;;;;40.00;25.60;;;10.80;99.90;;;;;;5068627;28;20117;-67
2023/09/01 01:59:58;;;;;;;34.40;24.67;;;10.90;99.90;;;;;;5065963;28;20136;-66
2023/09/01 02:02:24;;;;;;;40.83;25.25;;;10.90;99.90;;;;;;5068669;28;20119;-65
2023/09/01 02:04:50;;;;;;;42.30;25.88;;;10.90;99.90;;;;;;5068076;28;20028;-65
2023/09/01 02:07:16;;;;;;;33.38;22.88;;;10.90;99.90;;;;;;5069594;28;20056;-65
2023/09/01 02:09:42;;;;;;;33.63;24.17;;;10.80;99.90;;;;;;5069234;28;20505;-65
2023/09/01 02:12:08;;;;;;;32.75;22.60;;;10.80;99.90;;;;;;5069504;28;20057;-65
2023/09/01 02:14:35;;;;;;;29.23;21.30;;;10.80;99.90;;;;;;5067842;28;20032;-66
2023/09/01 02:17:03;;;;;;;27.67;21.17;;;10.80;99.90;;;;;;5064680;28;20035;-65
2023/09/01 02:19:28;;;;;;;32.78;23.30;;;10.80;99.90;;;;;;5068305;28;20033;-66
2023/09/01 02:21:54;;;;;;;31.33;22.50;;;10.80;99.90;;;;;;5068499;28;20490;-66
2023/09/01 02:24:20;;;;;;;35.08;23.27;;;10.80;99.90;;;;;;5064918;28;20032;-66
2023/09/01 02:26:45;;;;;;;43.05;28.40;;;10.80;99.90;;;;;;5056918;28;20033;-65
2023/09/01 02:29:11;;;;;;;43.72;29.95;;;10.90;99.90;;;;;;5054047;28;20037;-66
2023/09/01 02:31:37;;;;;;;42.50;27.98;;;10.90;99.90;;;;;;5056904;28;20029;-66
2023/09/01 02:34:04;;;;;;;40.58;26.75;;;10.90;99.90;;;;;;5052991;28;20075;-65
2023/09/01 02:36:34;;;;;;;40.67;26.92;;;10.80;99.90;;;;;;5055939;28;20086;-65
2023/09/01 02:39:01;;;;;;;43.90;28.67;;;10.90;99.90;;;;;;5055383;28;20138;-66
2023/09/01 02:41:28;;;;;;;35.08;26.33;;;10.90;99.90;;;;;;5055739;28;20028;-66
2023/09/01 02:43:53;;;;;;;44.00;29.40;;;10.80;99.90;;;;;;5055052;28;20040;-66
2023/09/01 02:46:20;;;;;;;43.88;28.25;;;10.90;99.90;;;;;;5051987;28;20079;-66
2023/09/01 02:48:46;;;;;;;37.58;25.27;;;10.80;99.90;;;;;;5053186;28;20166;-66
2023/09/01 02:51:12;;;;;;;37.40;25.27;;;10.90;99.90;;;;;;5056523;28;20115;-66
2023/09/01 02:53:38;;;;;;;33.55;23.42;;;10.90;99.90;;;;;;5055729;28;20029;-66
2023/09/01 02:56:05;;;;;;;42.10;28.75;;;10.90;99.90;;;;;;5054694;28;20382;-66
2023/09/01 02:58:32;;;;;;;38.63;25.83;;;10.80;99.90;;;;;;5053904;28;20036;-66
2023/09/01 03:00:58;;;;;;;42.67;27.92;;;10.80;99.90;;;;;;5054083;28;20108;-66
2023/09/01 03:03:24;;;;;;;41.58;28.20;;;10.80;99.90;;;;;;5053858;28;20117;-66
2023/09/01 03:05:51;;;;;;;41.03;27.00;;;10.90;99.90;;;;;;5054165;28;20041;-66
2023/09/01 03:08:18;;;;;;;42.28;26.60;;;10.80;99.90;;;;;;5055930;28;20025;-66
2023/09/01 03:10:44;;;;;;;34.63;24.48;;;10.70;99.90;;;;;;5055195;28;20127;-66
2023/09/01 03:13:10;;;;;;;31.80;22.45;;;10.70;99.90;;;;;;5052607;28;20045;-69
2023/09/01 03:15:36;;;;;;;31.85;21.70;;;10.60;99.90;;;;;;5051109;28;20394;-66
2023/09/01 03:18:02;;;;;;;35.22;23.90;;;10.60;99.90;;;;;;5054610;28;20028;-66
2023/09/01 03:20:28;;;;;;;30.40;22.38;;;10.50;99.90;;;;;;5054519;28;20430;-66
2023/09/01 03:22:54;;;;;;;35.10;24.52;;;10.50;99.90;;;;;;5055792;28;20074;-65
2023/09/01 03:25:19;;;;;;;34.35;22.67;;;10.40;99.90;;;;;;5052488;28;20032;-65
2023/09/01 03:27:45;;;;;;;36.58;23.50;;;10.40;99.90;;;;;;5054067;28;20036;-66
2023/09/01 03:30:11;;;;;;;40.50;25.10;;;10.40;99.90;;;;;;5053094;28;20108;-66
2023/09/01 03:32:37;;;;;;;32.67;24.00;;;10.30;99.90;;;;;;5054007;28;20036;-66
2023/09/01 03:35:04;;;;;;;34.95;22.35;;;10.40;99.90;;;;;;5054126;28;20029;-66
2023/09/01 03:37:30;;;;;;;31.75;22.58;;;10.30;99.90;;;;;;5054868;28;20025;-67
2023/09/01 03:39:55;;;;;;;29.60;20.50;;;10.30;99.90;;;;;;5052655;28;20021;-68
2023/09/01 03:42:21;;;;;;;28.83;21.10;;;10.20;99.90;;;;;;5048676;28;20143;-66
2023/09/01 03:44:46;;;;;;;32.35;21.55;;;10.20;99.90;;;;;;5054725;28;20082;-67
2023/09/01 03:47:13;;;;;;;35.95;22.40;;;10.20;99.90;;;;;;5052027;28;20021;-67
2023/09/01 03:49:39;;;;;;;32.10;22.23;;;10.20;99.90;;;;;;5053494;28;20478;-66
2023/09/01 03:52:04;;;;;;;34.20;21.95;;;10.20;99.90;;;;;;5054764;28;20021;-66
2023/09/01 03:54:30;;;;;;;29.38;20.60;;;10.10;99.90;;;;;;5054919;28;20055;-66
2023/09/01 03:56:56;;;;;;;29.55;21.30;;;10.10;99.90;;;;;;5053486;28;20057;-66
2023/09/01 03:59:22;;;;;;;33.85;22.63;;;10.10;99.90;;;;;;5051910;28;20091;-66
2023/09/01 04:01:48;;;;;;;36.63;24.60;;;10.10;99.90;;;;;;5053170;28;20119;-65
2023/09/01 04:04:14;;;;;;;33.35;22.50;;;10.20;99.90;;;;;;5052686;28;20558;-65
2023/09/01 04:06:40;;;;;;;42.05;26.80;;;10.20;99.90;;;;;;5054547;28;20059;-64
2023/09/01 04:09:06;;;;;;;35.58;23.27;;;10.10;99.90;;;;;;5053132;28;20029;-64
2023/09/01 04:11:32;;;;;;;33.90;24.38;;;10.20;99.90;;;;;;5054688;28;20082;-64
2023/09/01 04:13:58;;;;;;;37.38;24.83;;;10.10;99.90;;;;;;5053292;28;20041;-64
2023/09/01 04:16:24;;;;;;;34.50;23.35;;;10.20;99.90;;;;;;5052863;28;20048;-64
2023/09/01 04:18:51;;;;;;;42.03;27.48;;;10.10;99.90;;;;;;5044822;28;20028;-64
2023/09/01 04:21:17;;;;;;;41.10;27.10;;;10.20;99.90;;;;;;5046801;28;20111;-64
2023/09/01 04:23:43;;;;;;;46.55;28.45;;;10.30;99.90;;;;;;5054170;28;20118;-64
2023/09/01 04:26:09;;;;;;;50.45;30.55;;;10.30;99.90;;;;;;5054648;28;20178;-64
2023/09/01 04:28:34;;;;;;;43.10;28.55;;;10.40;99.90;;;;;;5051903;28;20068;-64
2023/09/01 04:31:02;;;;;;;45.78;28.90;;;10.40;99.90;;;;;;5050240;28;20036;-64
2023/09/01 04:33:28;;;;;;;49.70;29.30;;;10.30;99.90;;;;;;5051340;28;20032;-64
2023/09/01 04:36:03;;;;;;;49.88;29.38;;;10.30;99.90;;;;;;5052138;28;20040;-64
2023/09/01 04:38:29;;;;;;;41.00;27.08;;;10.30;99.90;;;;;;5054092;28;20036;-64
2023/09/01 04:40:56;;;;;;;46.72;28.42;;;10.30;99.90;;;;;;5052312;28;20079;-64
2023/09/01 04:43:25;;;;;;;40.95;26.13;;;10.20;99.90;;;;;;5054102;28;20029;-64
2023/09/01 04:45:51;;;;;;;44.67;26.25;;;10.20;99.90;;;;;;5052241;28;20036;-64
2023/09/01 04:48:17;;;;;;;49.90;27.10;;;10.40;99.90;;;;;;5052046;28;20029;-66
2023/09/01 04:50:42;;;;;;;43.83;27.88;;;10.30;99.90;;;;;;5050573;28;20540;-65
2023/09/01 04:53:09;;;;;;;43.38;27.35;;;10.50;99.90;;;;;;5050426;28;20044;-64
2023/09/01 04:55:34;;;;;;;42.00;26.77;;;10.50;99.90;;;;;;5053784;28;20021;-65
2023/09/01 04:58:00;;;;;;;46.92;26.88;;;10.60;99.90;;;;;;5053427;28;20025;-64
2023/09/01 05:00:26;;;;;;;37.55;25.33;;;10.60;99.90;;;;;;5051880;28;20025;-64
2023/09/01 05:02:51;;;;;;;46.83;27.33;;;10.70;99.90;;;;;;5052320;28;20040;-64
2023/09/01 05:05:17;;;;;;;42.65;26.70;;;10.70;99.90;;;;;;5052296;28;20047;-64
2023/09/01 05:07:43;;;;;;;45.22;26.92;;;10.90;99.90;;;;;;5046462;28;20044;-64
2023/09/01 05:10:09;;;;;;;47.88;27.85;;;11.10;99.90;;;;;;5039734;28;20033;-64
2023/09/01 05:12:35;;;;;;;40.33;26.25;;;11.10;99.90;;;;;;5046081;28;20611;-65
2023/09/01 05:15:01;;;;;;;43.88;24.98;;;11.30;99.90;;;;;;5044466;28;20017;-65
2023/09/01 05:17:28;;;;;;;40.65;25.67;;;11.40;99.90;;;;;;5036403;28;20532;-68
2023/09/01 05:19:54;;;;;;;40.55;24.35;;;11.30;99.90;;;;;;5049804;28;20098;-66
2023/09/01 05:22:20;;;;;;;34.95;22.05;;;11.40;99.90;;;;;;5051842;28;20032;-66
2023/09/01 05:24:47;;;;;;;36.75;22.05;;;11.40;99.90;;;;;;5042985;28;20144;-66
2023/09/01 05:27:13;;;;;;;37.95;21.88;;;11.50;99.90;;;;;;5032940;28;20108;-66
2023/09/01 05:29:38;;;;;;;36.78;23.25;;;11.50;99.90;;;;;;5033645;28;20448;-66
2023/09/01 05:32:04;;;;;;;31.67;21.75;;;11.60;99.90;;;;;;5049137;28;20482;-67
2023/09/01 05:34:30;;;;;;;34.67;20.23;;;11.70;99.90;;;;;;5049637;28;20037;-66
2023/09/01 05:36:57;;;;;;;29.23;18.60;;;11.80;99.90;;;;;;5049815;28;20428;-66
2023/09/01 05:39:23;;;;;;;29.75;18.73;;;11.90;99.90;;;;;;5038934;28;20115;-67
2023/09/01 05:41:49;;;;;;;25.55;18.73;;;12.00;99.90;;;;;;5041096;28;20072;-66
2023/09/01 05:44:15;;;;;;;24.38;18.02;;;12.10;99.90;;;;;;5032942;28;20029;-66
2023/09/01 05:46:40;;;;;;;24.45;16.88;;;12.10;99.90;;;;;;5050799;28;20112;-66
2023/09/01 05:49:06;;;;;;;24.20;16.55;;;12.20;99.90;;;;;;5052453;28;20102;-66
2023/09/01 05:51:31;;;;;;;24.90;16.38;;;12.20;99.90;;;;;;5050105;28;20047;-66
2023/09/01 05:53:57;;;;;;;24.90;15.77;;;12.30;99.90;;;;;;5048780;28;20025;-66
2023/09/01 05:56:22;;;;;;;32.00;18.92;;;12.40;99.90;;;;;;5051166;28;20500;-66
2023/09/01 05:58:48;;;;;;;21.58;14.80;;;12.40;99.90;;;;;;5051013;28;20036;-66
2023/09/01 06:01:14;;;;;;;23.30;14.40;;;12.50;99.90;;;;;;5055909;28;20079;-66
2023/09/01 06:03:39;;;;;;;19.23;13.85;;;12.40;99.90;;;;;;5056322;28;20040;-66
2023/09/01 06:06:07;;;;;;;18.15;14.85;;;12.50;99.90;;;;;;5054976;28;20029;-66
2023/09/01 06:08:32;;;;;;;23.55;14.13;;;12.50;99.90;;;;;;5055958;28;20029;-66
2023/09/01 06:11:12;;;;;;;17.23;13.82;;;12.50;99.90;;;;;;5056303;28;20082;-66
2023/09/01 06:13:37;;;;;;;23.73;13.73;;;12.60;99.90;;;;;;5055360;28;20053;-66
2023/09/01 06:16:04;;;;;;;22.17;13.52;;;12.70;99.90;;;;;;5055893;28;20120;-66
2023/09/01 06:18:30;;;;;;;20.27;13.35;;;12.80;99.90;;;;;;5057108;28;20374;-67
2023/09/01 06:20:55;;;;;;;19.58;12.63;;;13.10;99.90;;;;;;5055213;28;20036;-67
2023/09/01 06:23:21;;;;;;;20.38;11.80;;;13.30;99.90;;;;;;5055713;28;20411;-67
2023/09/01 06:25:47;;;;;;;14.65;10.60;;;13.40;99.90;;;;;;5056166;28;20029;-67
2023/09/01 06:28:13;;;;;;;16.02;10.93;;;13.60;99.90;;;;;;5056017;28;20037;-66
2023/09/01 06:30:41;;;;;;;16.98;10.45;;;13.70;99.90;;;;;;5055899;28;20032;-66
2023/09/01 06:33:08;;;;;;;13.32;9.75;;;13.90;99.90;;;;;;5055862;28;20033;-67
2023/09/01 06:35:34;;;;;;;13.35;9.30;;;14.10;99.90;;;;;;5055308;28;20495;-66
2023/09/01 06:38:07;;;;;;;13.15;9.02;;;14.10;99.90;;;;;;5056738;28;20559;-66
2023/09/01 06:40:33;;;;;;;17.92;9.00;;;14.20;99.90;;;;;;5056166;28;20021;-67
2023/09/01 06:42:59;;;;;;;12.00;8.15;;;14.40;99.90;;;;;;5055198;28;20025;-67
2023/09/01 06:45:24;;;;;;;13.05;8.60;;;14.60;99.90;;;;;;5055646;28;20032;-66
2023/09/01 06:47:55;;;;;;;13.43;7.32;;;14.70;99.90;;;;;;5055321;28;20032;-66
2023/09/01 06:50:21;;;;;;;16.52;7.50;;;14.90;99.90;;;;;;5046757;28;20470;-66
2023/09/01 06:52:47;;;;;;;15.02;7.30;;;15.00;99.90;;;;;;5055093;28;20025;-66
2023/09/01 06:55:12;;;;;;;13.65;6.90;;;15.30;99.90;;;;;;5056007;28;20047;-66
2023/09/01 06:57:39;;;;;;;9.45;6.03;;;15.50;99.90;;;;;;5055771;28;20419;-67
2023/09/01 07:00:06;;;;;;;10.82;6.40;;;15.70;99.90;;;;;;5055048;28;20529;-66
2023/09/01 07:02:32;;;;;;;10.60;6.07;;;15.90;99.90;;;;;;5055082;28;20032;-66
2023/09/01 07:04:58;;;;;;;10.20;6.07;;;16.00;99.90;;;;;;5054304;28;20032;-66
2023/09/01 07:07:24;;;;;;;10.18;5.72;;;16.10;99.90;;;;;;5056081;28;20027;-65
2023/09/01 07:09:49;;;;;;;6.25;5.07;;;16.30;99.60;;;;;;5055050;28;20546;-66
2023/09/01 07:12:15;;;;;;;10.65;5.80;;;16.60;94.90;;;;;;5054449;28;20033;-66
2023/09/01 07:14:41;;;;;;;11.00;5.20;;;17.10;66.60;;;;;;5054470;28;20040;-66
2023/09/01 07:17:06;;;;;;;10.88;4.97;;;18.10;1.00;;;;;;5055349;28;20036;-66
2023/09/01 07:19:32;;;;;;;10.27;4.07;;;18.80;1.00;;;;;;5055875;28;20025;-66
2023/09/01 07:21:58;;;;;;;9.05;4.40;;;19.00;1.00;;;;;;5054442;28;20379;-66
2023/09/01 07:24:23;;;;;;;9.20;4.68;;;19.00;1.00;;;;;;5054608;28;20083;-66
2023/09/01 07:26:49;;;;;;;6.93;4.20;;;18.90;1.00;;;;;;5045854;28;20128;-66
2023/09/01 07:29:15;;;;;;;12.43;4.00;;;19.00;99.90;;;;;;5049844;28;20086;-66
2023/09/01 07:31:40;;;;;;;7.07;3.95;;;19.00;1.00;;;;;;5051470;28;20040;-66
2023/09/01 07:34:06;;;;;;;8.45;4.22;;;18.80;1.00;;;;;;5053854;28;20028;-67
2023/09/01 07:36:32;;;;;;;8.32;4.15;;;18.80;1.00;;;;;;5052377;28;20025;-66
2023/09/01 07:38:57;;;;;;;9.98;4.22;;;19.00;1.00;;;;;;5052886;28;20385;-66
2023/09/01 07:41:23;;;;;;;8.23;3.90;;;19.00;1.00;;;;;;5053681;28;20395;-66
2023/09/01 07:43:49;;;;;;;12.80;4.22;;;18.90;1.00;;;;;;5051295;28;20048;-66
2023/09/01 07:46:15;;;;;;;7.60;4.05;;;19.20;99.90;;;;;;5053298;28;20486;-66
2023/09/01 07:48:40;;;;;;;7.75;4.57;;;19.40;99.90;;;;;;5055125;28;20029;-66
2023/09/01 07:51:06;;;;;;;10.48;4.07;;;19.40;1.00;;;;;;5057806;28;20068;-66
2023/09/01 07:53:32;;;;;;;8.93;4.38;;;19.00;1.00;;;;;;5051868;28;20021;-69
2023/09/01 07:55:58;;;;;;;10.15;4.47;;;18.70;1.00;;;;;;5054120;28;20036;-66
2023/09/01 07:58:23;;;;;;;7.38;4.10;;;18.40;1.00;;;;;;5045486;28;20026;-71
2023/09/01 08:00:49;;;;;;;8.68;4.45;;;18.10;1.00;;;;;;5044477;28;20493;-66
2023/09/01 08:03:16;;;;;;;11.55;4.38;;;18.00;1.00;;;;;;5054679;28;20100;-67
2023/09/01 08:05:41;;;;;;;6.85;4.22;;;18.20;1.00;;;;;;5039699;28;20091;-66
2023/09/01 08:08:07;;;;;;;7.20;3.85;;;18.20;1.00;;;;;;5053783;28;20482;-66
2023/09/01 08:10:33;;;;;;;8.95;3.95;;;18.20;1.00;;;;;;5054028;28;20041;-66
2023/09/01 08:12:58;;;;;;;7.10;3.70;;;18.30;1.00;;;;;;5052698;28;20056;-66
2023/09/01 08:15:24;;;;;;;5.68;3.80;;;18.40;1.00;;;;;;5061482;28;20042;-65
2023/09/01 08:17:50;;;;;;;9.07;4.10;;;18.60;1.00;;;;;;5070071;28;20049;-66
2023/09/01 08:20:17;;;;;;;6.18;3.67;;;18.90;1.00;;;;;;5052631;28;20471;-66
2023/09/01 08:22:43;;;;;;;7.15;3.30;;;19.20;1.00;;;;;;5053069;28;20075;-66
2023/09/01 08:25:09;;;;;;;4.20;3.28;;;19.30;1.00;;;;;;5052964;28;20029;-66
2023/09/01 08:27:35;;;;;;;5.22;3.25;;;19.30;1.00;;;;;;5053980;28;20514;-66
2023/09/01 08:30:00;;;;;;;5.85;3.58;;;19.20;1.00;;;;;;5043941;28;20024;-68
2023/09/01 08:32:27;;;;;;;7.65;3.53;;;19.00;1.00;;;;;;5068497;28;20391;-66
2023/09/01 08:34:53;;;;;;;6.82;3.67;;;18.80;1.00;;;;;;5054006;28;20025;-66
2023/09/01 08:37:19;;;;;;;4.72;3.65;;;18.60;1.00;;;;;;5052527;28;20083;-66
2023/09/01 08:39:45;;;;;;;3.90;3.35;;;18.50;1.00;;;;;;5043266;28;20117;-66
2023/09/01 08:42:12;;;;;;;10.27;3.55;;;19.00;1.00;;;;;;5034180;28;20105;-67
2023/09/01 08:44:39;;;;;;;7.45;3.72;;;19.40;1.00;;;;;;5033590;28;20041;-67
2023/09/01 08:47:07;;;;;;;6.63;3.50;;;19.30;1.00;;;;;;5047881;28;20525;-66
2023/09/01 08:49:33;;;;;;;5.43;2.85;;;19.60;1.00;;;;;;5041280;28;20067;-66
2023/09/01 08:52:00;;;;;;;6.78;2.83;;;21.10;99.90;;;;;;5052347;28;20498;-66
2023/09/01 08:54:25;;;;;;;6.40;3.10;;;21.00;99.90;;;;;;5033477;28;20035;-66
2023/09/01 08:56:51;;;;;;;3.10;2.80;;;20.80;99.90;;;;;;5020715;28;20109;-66
2023/09/01 08:59:17;;;;;;;6.93;3.20;;;20.80;99.90;;;;;;5013910;28;20037;-66
2023/09/01 09:01:43;;;;;;;4.05;3.00;;;20.60;99.90;;;;;;5025066;28;20055;-66
2023/09/01 09:04:08;;;;;;;4.95;3.38;;;20.90;99.90;;;;;;5032754;28;20072;-67
2023/09/01 09:06:36;;;;;;;3.50;2.53;;;21.20;99.90;;;;;;5032553;28;20057;-66
2023/09/01 09:09:11;;;;;;;4.35;2.92;;;21.40;99.90;;;;;;5033207;28;20112;-66
2023/09/01 09:11:38;;;;;;;5.63;2.60;;;21.60;1.00;;;;;;5016670;28;20506;-66
2023/09/01 09:14:04;;;;;;;4.70;3.00;;;21.70;1.00;;;;;;5030130;28;20052;-67
2023/09/01 09:16:30;;;;;;;3.72;2.47;;;21.60;1.00;;;;;;5026536;28;20029;-66
2023/09/01 09:18:55;;;;;;;2.92;2.63;;;20.80;99.90;;;;;;5032775;28;20029;-66
2023/09/01 09:21:31;;;;;;;3.72;2.65;;;20.90;99.90;;;;;;5031015;28;20036;-66
2023/09/01 09:23:58;;;;;;;3.45;2.47;;;20.50;99.90;;;;;;5033245;28;20036;-66
2023/09/01 09:26:26;;;;;;;4.55;2.85;;;20.60;99.90;;;;;;5031224;28;20120;-67
2023/09/01 09:28:52;;;;;;;5.95;2.90;;;20.50;99.90;;;;;;5032309;28;20428;-66
2023/09/01 09:31:18;;;;;;;3.65;2.50;;;20.40;1.00;;;;;;5025668;28;20141;-66
2023/09/01 09:33:44;;;;;;;5.97;2.90;;;20.20;1.00;;;;;;5013153;28;20041;-66
2023/09/01 09:36:10;;;;;;;6.65;2.30;;;20.30;1.00;;;;;;5030616;28;20025;-75
2023/09/01 09:38:42;;;;;;;3.95;2.80;;;20.40;1.00;;;;;;5038904;28;20029;-66
2023/09/01 09:41:08;;;;;;;4.80;2.50;;;20.40;1.00;;;;;;5035902;28;20025;-66
2023/09/01 09:43:44;;;;;;;4.80;3.25;;;20.10;1.00;;;;;;5036566;28;20041;-66
2023/09/01 09:46:10;;;;;;;5.18;2.70;;;20.20;1.00;;;;;;5034535;28;20429;-67
2023/09/01 09:48:38;;;;;;;4.10;3.30;;;20.10;1.00;;;;;;5025330;28;20029;-69
2023/09/01 09:51:07;;;;;;;7.05;3.20;;;19.80;1.00;;;;;;5036168;28;20036;-67
2023/09/01 09:53:35;;;;;;;4.40;3.30;;;19.60;1.00;;;;;;5036451;28;20026;-66
2023/09/01 09:56:30;;;;;;;3.35;2.85;;;19.70;1.00;;;;;;5036407;28;20021;-66
2023/09/01 09:59:02;;;;;;;5.78;3.28;;;19.40;1.00;;;;;;5036762;28;20479;-66
2023/09/01 10:01:30;;;;;;;5.95;3.20;;;19.50;1.00;;;;;;5036807;28;20026;-66
2023/09/01 10:03:58;;;;;;;3.85;3.05;;;19.60;1.00;;;;;;5036737;28;20029;-67
2023/09/01 10:06:23;;;;;;;4.20;3.15;;;19.40;1.00;;;;;;5035741;28;20446;-66
2023/09/01 10:08:53;;;;;;;5.07;2.30;;;19.20;1.00;;;;;;5035687;28;20124;-66
2023/09/01 10:11:21;;;;;;;4.65;2.78;;;19.20;1.00;;;;;;5035826;28;20040;-66
2023/09/01 10:13:47;;;;;;;5.28;2.97;;;19.20;1.00;;;;;;5035800;28;20056;-67
2023/09/01 10:16:13;;;;;;;4.65;3.10;;;19.20;1.00;;;;;;5036278;28;20021;-68
2023/09/01 10:18:43;;;;;;;6.18;2.70;;;19.10;1.00;;;;;;5037119;28;20116;-66
2023/09/01 10:21:11;;;;;;;4.65;2.63;;;19.10;1.00;;;;;;5036357;28;20025;-66
2023/09/01 10:23:37;;;;;;;6.82;3.08;;;18.90;8.50;;;;;;5036598;28;20121;-67
2023/09/01 10:26:28;;;;;;;3.40;2.58;;;18.90;12.20;;;;;;5036956;28;20036;-66
2023/09/01 10:29:10;;;;;;;4.50;3.00;;;18.80;12.10;;;;;;5035513;28;20037;-66
2023/09/01 10:31:36;;;;;;;7.32;3.10;;;18.80;17.90;;;;;;5036103;28;20034;-66
2023/09/01 10:34:09;;;;;;;3.25;2.60;;;18.80;26.80;;;;;;5036060;28;20391;-66
2023/09/01 10:36:36;;;;;;;3.75;2.55;;;18.80;35.20;;;;;;5035509;28;20030;-67
2023/09/01 10:39:21;;;;;;;4.25;2.60;;;18.80;28.80;;;;;;5036764;28;20431;-67
2023/09/01 10:42:05;;;;;;;3.30;2.35;;;18.90;44.70;;;;;;5032173;28;20387;-67
2023/09/01 10:50:12;;;;;;;3.10;2.80;;;18.70;75.40;;;;;;5070082;28;20399;-66
2023/09/01 10:52:38;;;;;;;4.78;2.65;;;18.60;98.40;;;;;;5070755;28;20032;-66
2023/09/01 10:55:05;;;;;;;4.05;2.80;;;18.60;99.90;;;;;;5063139;28;20029;-67
2023/09/01 10:57:43;;;;;;;4.30;3.13;;;18.60;99.90;;;;;;5059998;28;20364;-67
2023/09/01 11:00:31;;;;;;;7.82;3.38;;;18.70;99.90;;;;;;5062823;28;20032;-66
2023/09/01 11:03:33;;;;;;;5.03;2.88;;;18.60;99.90;;;;;;5068746;28;20029;-65
2023/09/01 11:06:01;;;;;;;7.05;3.38;;;18.60;99.90;;;;;;5071105;28;20463;-67
2023/09/01 11:08:27;;;;;;;3.40;2.75;;;18.50;99.90;;;;;;5064987;28;20033;-66
2023/09/01 11:10:55;;;;;;;4.63;3.03;;;18.50;99.90;;;;;;5055855;28;20082;-67
2023/09/01 11:13:22;;;;;;;7.75;4.20;;;18.50;99.90;;;;;;5068344;28;20021;-67
2023/09/01 11:15:50;;;;;;;5.50;3.45;;;18.50;99.90;;;;;;5067685;28;20016;-66
2023/09/01 11:18:18;;;;;;;4.40;3.00;;;18.40;99.90;;;;;;5054832;28;20032;-67
2023/09/01 11:20:44;;;;;;;6.10;2.80;;;18.50;99.90;;;;;;5048707;28;20482;-67
2023/09/01 11:23:11;;;;;;;4.95;2.70;;;18.40;99.90;;;;;;5048364;28;20159;-67
2023/09/01 11:25:37;;;;;;;5.28;2.92;;;18.30;99.90;;;;;;5050171;28;20466;-67
2023/09/01 11:28:03;;;;;;;8.13;2.85;;;18.30;99.90;;;;;;5053358;28;20040;-66
2023/09/01 11:30:28;;;;;;;4.03;2.50;;;18.20;99.90;;;;;;5049951;28;20480;-66
2023/09/01 11:32:55;;;;;;;2.95;2.55;;;18.10;99.90;;;;;;5051993;28;20112;-67
2023/09/01 11:35:27;;;;;;;5.75;2.75;;;18.00;99.90;;;;;;5049954;28;20091;-70
2023/09/01 11:37:54;;;;;;;3.70;2.20;;;18.00;99.90;;;;;;5049219;28;20486;-66
2023/09/01 11:40:22;;;;;;;2.85;2.03;;;17.90;99.90;;;;;;5052963;28;20020;-66
2023/09/01 11:42:48;;;;;;;3.83;2.22;;;17.80;99.90;;;;;;5061285;28;20044;-67
2023/09/01 11:45:14;;;;;;;1.63;1.52;;;17.70;99.90;;;;;;5061598;28;20017;-66
2023/09/01 11:47:40;;;;;;;2.80;1.92;;;17.60;99.90;;;;;;5054439;28;20037;-67
2023/09/01 11:50:11;;;;;;;2.20;2.00;;;17.40;99.90;;;;;;5043736;28;20068;-67
2023/09/01 11:52:54;;;;;;;2.92;1.92;;;17.40;99.90;;;;;;5046414;28;20554;-70
2023/09/01 11:55:28;;;;;;;4.15;2.25;;;17.20;99.90;;;;;;5047578;28;20029;-67
2023/09/01 11:57:54;;;;;;;2.63;2.20;;;17.30;99.90;;;;;;5049204;28;20048;-68
2023/09/01 12:00:38;;;;;;;2.42;1.98;;;17.30;99.90;;;;;;5044515;28;20025;-69
2023/09/01 12:03:05;;;;;;;3.28;2.60;;;17.30;99.90;;;;;;5031461;28;20044;-69
2023/09/01 12:05:35;;;;;;;5.38;2.22;;;17.40;99.90;;;;;;5035131;28;20032;-69
2023/09/01 12:08:03;;;;;;;3.42;1.92;;;17.40;99.90;;;;;;5033309;28;20396;-68
2023/09/01 12:10:29;;;;;;;2.28;1.92;;;17.40;99.90;;;;;;5035380;28;20026;-68
2023/09/01 12:13:12;;;;;;;4.32;2.50;;;17.40;99.90;;;;;;5035683;28;20030;-68
2023/09/01 12:15:59;;;;;;;4.20;2.35;;;17.40;99.90;;;;;;5035523;28;20018;-68
2023/09/01 12:18:36;;;;;;;4.00;2.17;;;17.30;99.90;;;;;;5035945;28;20486;-68
2023/09/01 12:21:03;;;;;;;3.63;2.20;;;17.30;99.90;;;;;;5036472;28;20029;-70
2023/09/01 12:23:32;;;;;;;4.97;2.30;;;17.30;99.90;;;;;;5035867;28;20033;-74
2023/09/01 12:25:58;;;;;;;2.60;2.20;;;17.20;99.90;;;;;;5036589;28;20037;-70
2023/09/01 12:28:26;;;;;;;2.88;2.40;;;17.30;99.90;;;;;;5036396;28;20068;-70
2023/09/01 12:30:53;;;;;;;4.93;2.50;;;17.30;99.90;;;;;;5036474;28;20441;-70
2023/09/01 12:33:19;;;;;;;2.60;2.33;;;17.30;99.90;;;;;;5036277;28;20021;-69
2023/09/01 12:35:44;;;;;;;2.25;2.00;;;17.40;99.90;;;;;;5036172;28;20502;-70
2023/09/01 12:38:10;;;;;;;2.20;2.00;;;17.30;99.90;;;;;;5036392;28;20119;-69
2023/09/01 12:40:36;;;;;;;2.10;1.90;;;17.40;99.90;;;;;;5035361;28;20025;-69
2023/09/01 12:43:02;;;;;;;2.38;2.17;;;17.40;99.90;;;;;;5036274;28;20044;-69
2023/09/01 12:45:29;;;;;;;2.90;1.90;;;17.50;99.90;;;;;;5035788;28;20021;-69
2023/09/01 12:47:55;;;;;;;3.75;2.17;;;17.50;99.90;;;;;;5035407;28;20040;-70
2023/09/01 12:50:21;;;;;;;4.30;2.20;;;17.50;99.90;;;;;;5035801;28;20075;-70